地図

経路データ

SID SEASON NUMBER BASIN SUBBASIN NAME ISO_TIME NATURE LAT LON WMO_WIND WMO_PRES WMO_AGENCY TRACK_TYPE DIST2LAND LANDFALL IFLAG USA_AGENCY USA_ATCF_ID USA_LAT USA_LON USA_RECORD USA_STATUS USA_WIND USA_PRES USA_SSHS USA_R34_NE USA_R34_SE USA_R34_SW USA_R34_NW USA_R50_NE USA_R50_SE USA_R50_SW USA_R50_NW USA_R64_NE USA_R64_SE USA_R64_SW USA_R64_NW USA_POCI USA_ROCI USA_RMW USA_EYE TOKYO_LAT TOKYO_LON TOKYO_GRADE TOKYO_WIND TOKYO_PRES TOKYO_R50_DIR TOKYO_R50_LONG TOKYO_R50_SHORT TOKYO_R30_DIR TOKYO_R30_LONG TOKYO_R30_SHORT TOKYO_LAND CMA_LAT CMA_LON CMA_CAT CMA_WIND CMA_PRES HKO_LAT HKO_LON HKO_CAT HKO_WIND HKO_PRES NEWDELHI_LAT NEWDELHI_LON NEWDELHI_GRADE NEWDELHI_WIND NEWDELHI_PRES NEWDELHI_CI NEWDELHI_DP NEWDELHI_POCI REUNION_LAT REUNION_LON REUNION_TYPE REUNION_WIND REUNION_PRES REUNION_TNUM REUNION_CI REUNION_RMW REUNION_R34_NE REUNION_R34_SE REUNION_R34_SW REUNION_R34_NW REUNION_R50_NE REUNION_R50_SE REUNION_R50_SW REUNION_R50_NW REUNION_R64_NE REUNION_R64_SE REUNION_R64_SW REUNION_R64_NW BOM_LAT BOM_LON BOM_TYPE BOM_WIND BOM_PRES BOM_TNUM BOM_CI BOM_RMW BOM_R34_NE BOM_R34_SE BOM_R34_SW BOM_R34_NW BOM_R50_NE BOM_R50_SE BOM_R50_SW BOM_R50_NW BOM_R64_NE BOM_R64_SE BOM_R64_SW BOM_R64_NW BOM_ROCI BOM_POCI BOM_EYE BOM_POS_METHOD BOM_PRES_METHOD NADI_LAT NADI_LON NADI_CAT NADI_WIND NADI_PRES WELLINGTON_LAT WELLINGTON_LON WELLINGTON_WIND WELLINGTON_PRES DS824_LAT DS824_LON DS824_STAGE DS824_WIND DS824_PRES TD9636_LAT TD9636_LON TD9636_STAGE TD9636_WIND TD9636_PRES TD9635_LAT TD9635_LON TD9635_WIND TD9635_PRES TD9635_ROCI NEUMANN_LAT NEUMANN_LON NEUMANN_CLASS NEUMANN_WIND NEUMANN_PRES MLC_LAT MLC_LON MLC_CLASS MLC_WIND MLC_PRES USA_GUST BOM_GUST BOM_GUST_PER REUNION_GUST REUNION_GUST_PER USA_SEAHGT USA_SEARAD_NE USA_SEARAD_SE USA_SEARAD_SW USA_SEARAD_NW STORM_SPEED STORM_DIR
1897283N12298 1897 38 NA CS NOT_NAMED 1897-10-09 18:00:00 TS 12.4000 -61.7000 40 hurdat_atl main 190 190 O_____________ hurdat_atl AL051897 12.4000 -61.7000 TS 40 0 8 276
1897283N12298 1897 38 NA CS NOT_NAMED 1897-10-09 21:00:00 TS 12.4425 -62.1175 main 190 190 P_____________ AL051897 12.4425 -62.1175 TS 40 0 9 276
1897283N12298 1897 38 NA CS NOT_NAMED 1897-10-10 00:00:00 TS 12.5000 -62.6000 40 hurdat_atl main 201 201 O_____________ hurdat_atl AL051897 12.5000 -62.6000 TS 40 0 11 278
1897283N12298 1897 38 NA CS NOT_NAMED 1897-10-10 03:00:00 TS 12.5851 -63.1850 main 213 213 P_____________ AL051897 12.5851 -63.1850 TS 40 0 12 280
1897283N12298 1897 38 NA CS NOT_NAMED 1897-10-10 06:00:00 TS 12.7000 -63.8000 40 hurdat_atl main 235 235 O_____________ hurdat_atl AL051897 12.7000 -63.8000 TS 40 0 12 283
1897283N12298 1897 38 NA CS NOT_NAMED 1897-10-10 09:00:00 TS 12.8498 -64.3500 main 246 246 P_____________ AL051897 12.8498 -64.3500 TS 40 0 11 286
1897283N12298 1897 38 NA CS NOT_NAMED 1897-10-10 12:00:00 TS 13.0000 -64.9000 40 hurdat_atl main 279 279 O_____________ hurdat_atl AL051897 13.0000 -64.9000 TS 40 0 12 283
1897283N12298 1897 38 NA CS NOT_NAMED 1897-10-10 15:00:00 TS 13.1075 -65.5001 main 285 280 P_____________ AL051897 13.1075 -65.5001 TS 40 0 12 280
1897283N12298 1897 38 NA CS NOT_NAMED 1897-10-10 18:00:00 TS 13.2000 -66.1000 40 hurdat_atl main 291 291 O_____________ hurdat_atl AL051897 13.2000 -66.1000 TS 40 0 11 280
1897283N12298 1897 38 NA CS NOT_NAMED 1897-10-10 21:00:00 TS 13.2998 -66.6501 main 299 278 P_____________ AL051897 13.2998 -66.6501 TS 40 0 11 281
1897283N12298 1897 38 NA CS NOT_NAMED 1897-10-11 00:00:00 TS 13.4000 -67.2000 40 hurdat_atl main 278 259 O_____________ hurdat_atl AL051897 13.4000 -67.2000 TS 40 0 11 280
1897283N12298 1897 38 NA CS NOT_NAMED 1897-10-11 03:00:00 TS 13.4999 -67.7925 main 259 233 P_____________ AL051897 13.4999 -67.7925 TS 40 0 12 280
1897283N12298 1897 38 NA CS NOT_NAMED 1897-10-11 06:00:00 TS 13.6000 -68.4000 40 hurdat_atl main 233 204 O_____________ hurdat_atl AL051897 13.6000 -68.4000 TS 40 0 12 280
1897283N12298 1897 38 NA CS NOT_NAMED 1897-10-11 09:00:00 TS 13.6999 -69.0001 main 204 190 P_____________ AL051897 13.6999 -69.0001 TS 40 0 12 280
1897283N12298 1897 38 NA CS NOT_NAMED 1897-10-11 12:00:00 TS 13.8000 -69.6000 40 hurdat_atl main 193 190 O_____________ hurdat_atl AL051897 13.8000 -69.6000 TS 40 0 12 280
1897283N12298 1897 38 NA CS NOT_NAMED 1897-10-11 15:00:00 TS 13.9074 -70.2000 main 201 194 P_____________ AL051897 13.9074 -70.2000 TS 40 0 12 280
1897283N12298 1897 38 NA CS NOT_NAMED 1897-10-11 18:00:00 TS 14.0000 -70.8000 40 hurdat_atl main 194 180 O_____________ hurdat_atl AL051897 14.0000 -70.8000 TS 40 0 12 277
1897283N12298 1897 38 NA CS NOT_NAMED 1897-10-11 21:00:00 TS 14.0573 -71.3926 main 190 190 P_____________ AL051897 14.0573 -71.3926 TS 40 0 12 275
1897283N12298 1897 38 NA CS NOT_NAMED 1897-10-12 00:00:00 TS 14.1000 -72.0000 40 hurdat_atl main 193 193 O_____________ hurdat_atl AL051897 14.1000 -72.0000 TS 40 0 12 274
1897283N12298 1897 38 NA CS NOT_NAMED 1897-10-12 03:00:00 TS 14.1424 -72.6501 main 215 215 P_____________ AL051897 14.1424 -72.6501 TS 40 0 13 275
1897283N12298 1897 38 NA CS NOT_NAMED 1897-10-12 06:00:00 TS 14.2000 -73.3000 40 hurdat_atl main 253 253 O_____________ hurdat_atl AL051897 14.2000 -73.3000 TS 40 0 12 277
1897283N12298 1897 38 NA CS NOT_NAMED 1897-10-12 09:00:00 TS 14.2922 -73.9000 main 298 298 P_____________ AL051897 14.2922 -73.9000 TS 40 0 12 280
1897283N12298 1897 38 NA CS NOT_NAMED 1897-10-12 12:00:00 TS 14.4000 -74.5000 40 hurdat_atl main 350 350 O_____________ hurdat_atl AL051897 14.4000 -74.5000 TS 40 0 12 280
1897283N12298 1897 38 NA CS NOT_NAMED 1897-10-12 15:00:00 TS 14.4999 -75.1426 main 382 371 P_____________ AL051897 14.4999 -75.1426 TS 40 0 13 279
1897283N12298 1897 38 NA CS NOT_NAMED 1897-10-12 18:00:00 TS 14.6000 -75.8000 40 hurdat_atl main 371 346 O_____________ hurdat_atl AL051897 14.6000 -75.8000 TS 40 0 13 279
1897283N12298 1897 38 NA CS NOT_NAMED 1897-10-12 21:00:00 TS 14.6923 -76.4501 main 343 324 P_____________ AL051897 14.6923 -76.4501 TS 40 0 13 279
1897283N12298 1897 38 NA CS NOT_NAMED 1897-10-13 00:00:00 TS 14.8000 -77.1000 40 hurdat_atl main 324 314 O_____________ hurdat_atl AL051897 14.8000 -77.1000 TS 40 0 13 281
1897283N12298 1897 38 NA CS NOT_NAMED 1897-10-13 03:00:00 TS 14.9349 -77.7576 main 319 308 P_____________ AL051897 14.9349 -77.7576 TS 40 0 13 283
1897283N12298 1897 38 NA CS NOT_NAMED 1897-10-13 06:00:00 TS 15.1000 -78.4000 40 hurdat_atl main 317 317 O_____________ hurdat_atl AL051897 15.1000 -78.4000 TS 40 0 13 286
1897283N12298 1897 38 NA CS NOT_NAMED 1897-10-13 09:00:00 TS 15.2848 -79.0151 main 322 322 P_____________ AL051897 15.2848 -79.0151 TS 40 0 12 289
1897283N12298 1897 38 NA CS NOT_NAMED 1897-10-13 12:00:00 TS 15.5000 -79.6000 40 hurdat_atl main 328 320 O_____________ hurdat_atl AL051897 15.5000 -79.6000 TS 40 0 12 292
1897283N12298 1897 38 NA CS NOT_NAMED 1897-10-13 15:00:00 TS 15.7576 -80.2098 main 323 280 P_____________ AL051897 15.7576 -80.2098 TS 40 0 12 295
1897283N12298 1897 38 NA CS NOT_NAMED 1897-10-13 18:00:00 TS 16.0000 -80.7000 40 hurdat_atl main 280 265 O_____________ hurdat_atl AL051897 16.0000 -80.7000 TS 40 0 8 299
1897283N12298 1897 38 NA CS NOT_NAMED 1897-10-13 21:00:00 TS 16.1572 -80.9453 main 271 258 P_____________ AL051897 16.1572 -80.9453 TS 40 0 5 308
1897283N12298 1897 38 NA CS NOT_NAMED 1897-10-14 00:00:00 TS 16.3000 -81.1000 40 hurdat_atl main 258 248 O_____________ hurdat_atl AL051897 16.3000 -81.1000 TS 40 0 5 311
1897283N12298 1897 38 NA CS NOT_NAMED 1897-10-14 03:00:00 TS 16.5000 -81.3500 main 255 247 P_____________ AL051897 16.5000 -81.3500 TS 40 0 6 310
1897283N12298 1897 38 NA CS NOT_NAMED 1897-10-14 06:00:00 TS 16.7000 -81.6000 40 hurdat_atl main 248 239 O_____________ hurdat_atl AL051897 16.7000 -81.6000 TS 40 0 6 309
1897283N12298 1897 38 NA CS NOT_NAMED 1897-10-14 09:00:00 TS 16.8575 -81.8151 main 247 240 P_____________ AL051897 16.8575 -81.8151 TS 40 0 5 308
1897283N12298 1897 38 NA CS NOT_NAMED 1897-10-14 12:00:00 TS 17.0000 -82.0000 40 hurdat_atl main 242 235 O____________O hurdat_atl AL051897 17.0000 -82.0000 TS 40 0 17.0000 -82.0000 TD 30 4 312
1897283N12298 1897 38 NA CS NOT_NAMED 1897-10-14 15:00:00 TS 17.1495 -82.1555 main 238 238 P____________P AL051897 17.1500 -82.1575 TS 40 0 17.1475 -82.1475 TD 30 4 317
1897283N12298 1897 38 NA CS NOT_NAMED 1897-10-14 18:00:00 TS 17.3000 -82.3000 40 hurdat_atl main 252 252 O____________O hurdat_atl AL051897 17.3000 -82.3000 TS 40 0 17.3000 -82.3000 TD 30 4 317
1897283N12298 1897 38 NA CS NOT_NAMED 1897-10-14 21:00:00 TS 17.4575 -82.4575 main 264 264 P____________P AL051897 17.4575 -82.4575 TS 40 0 17.4575 -82.4575 TD 30 4 317
1897283N12298 1897 38 NA CS NOT_NAMED 1897-10-15 00:00:00 TS 17.6000 -82.6000 40 hurdat_atl main 269 269 O____________O hurdat_atl AL051897 17.6000 -82.6000 TS 40 0 17.6000 -82.6000 TD 30 3 316
1897283N12298 1897 38 NA CS NOT_NAMED 1897-10-15 03:00:00 TS 17.7075 -82.7075 main 272 272 P____________P AL051897 17.7075 -82.7075 TS 40 0 17.7075 -82.7075 TD 30 3 316
1897283N12298 1897 38 NA CS NOT_NAMED 1897-10-15 06:00:00 TS 17.8000 -82.8000 40 hurdat_atl main 274 268 O____________O hurdat_atl AL051897 17.8000 -82.8000 TS 40 0 17.8000 -82.8000 TD 30 3 314
1897283N12298 1897 38 NA CS NOT_NAMED 1897-10-15 09:00:00 TS 17.8925 -82.9075 main 278 272 P____________P AL051897 17.8925 -82.9075 TS 40 0 17.8925 -82.9075 TD 30 3 316
1897283N12298 1897 38 NA CS NOT_NAMED 1897-10-15 12:00:00 TS 18.0000 -83.0000 40 hurdat_atl main 282 282 O____________O hurdat_atl AL051897 18.0000 -83.0000 TS 40 0 18.0000 -83.0000 TD 30 3 331
1897283N12298 1897 38 NA CS NOT_NAMED 1897-10-15 15:00:00 TS 18.1575 -83.0650 main 297 297 P____________P AL051897 18.1575 -83.0650 TS 40 0 18.1575 -83.0650 TD 30 3 343
1897283N12298 1897 38 NA CS NOT_NAMED 1897-10-15 18:00:00 TS 18.3000 -83.1000 40 hurdat_atl main 307 307 O____________O hurdat_atl AL051897 18.3000 -83.1000 TS 40 0 18.3000 -83.1000 TD 30 2 347
1897283N12298 1897 38 NA CS NOT_NAMED 1897-10-15 21:00:00 TS 18.3650 -83.1075 main 317 317 P____________P AL051897 18.3650 -83.1075 TS 40 0 18.3650 -83.1075 TD 30 1 0
1897283N12298 1897 38 NA CS NOT_NAMED 1897-10-16 00:00:00 TS 18.4000 -83.1000 40 hurdat_atl main 317 317 O____________O hurdat_atl AL051897 18.4000 -83.1000 TS 40 0 18.4000 -83.1000 TD 30 1 12
1897283N12298 1897 38 NA CS NOT_NAMED 1897-10-16 03:00:00 TS 18.4425 -83.1075 main 317 317 P____________P AL051897 18.4425 -83.1075 TS 40 0 18.4425 -83.1075 TD 30 1 0
1897283N12298 1897 38 NA CS NOT_NAMED 1897-10-16 06:00:00 TS 18.5000 -83.1000 40 hurdat_atl main 325 314 O____________O hurdat_atl AL051897 18.5000 -83.1000 TS 40 0 18.5000 -83.1000 TD 30 1 16
1897283N12298 1897 38 NA CS NOT_NAMED 1897-10-16 09:00:00 TS 18.5850 -83.0650 main 314 302 P____________P AL051897 18.5850 -83.0650 TS 40 0 18.5850 -83.0650 TD 30 2 27
1897283N12298 1897 38 NA CS NOT_NAMED 1897-10-16 12:00:00 TS 18.7000 -83.0000 40 hurdat_atl main 302 290 O____________O hurdat_atl AL051897 18.7000 -83.0000 TS 40 0 18.7000 -83.0000 TD 30 3 28
1897283N12298 1897 38 NA CS NOT_NAMED 1897-10-16 15:00:00 TS 18.8500 -82.9150 main 290 268 P____________P AL051897 18.8500 -82.9150 TS 40 0 18.8500 -82.9150 TD 30 4 32
1897283N12298 1897 38 NA CS NOT_NAMED 1897-10-16 18:00:00 TS 19.0000 -82.8000 40 hurdat_atl main 268 257 O____________O hurdat_atl AL051897 19.0000 -82.8000 TS 40 0 19.0000 -82.8000 TD 30 4 44
1897283N12298 1897 38 NA CS NOT_NAMED 1897-10-16 21:00:00 TS 19.1075 -82.6500 main 258 246 P____________P AL051897 19.1075 -82.6500 TS 40 0 19.1075 -82.6500 TD 32 3 55
1897283N12298 1897 38 NA CS NOT_NAMED 1897-10-17 00:00:00 TS 19.2000 -82.5000 40 hurdat_atl main 248 238 O____________O hurdat_atl AL051897 19.2000 -82.5000 TS 40 0 19.2000 -82.5000 TS 35 3 52
1897283N12298 1897 38 NA CS NOT_NAMED 1897-10-17 03:00:00 TS 19.2925 -82.3999 main 238 229 P____________P AL051897 19.2925 -82.3999 TS 42 0 19.2925 -82.3999 TS 37 3 44
1897283N12298 1897 38 NA CS NOT_NAMED 1897-10-17 06:00:00 TS 19.4000 -82.3000 45 hurdat_atl main 229 218 O____________O hurdat_atl AL051897 19.4000 -82.3000 TS 45 0 19.4000 -82.3000 TS 40 3 40
1897283N12298 1897 38 NA CS NOT_NAMED 1897-10-17 09:00:00 TS 19.5500 -82.1650 main 221 203 P____________P AL051897 19.5500 -82.1650 TS 47 0 19.5500 -82.1650 TS 42 4 43
1897283N12298 1897 38 NA CS NOT_NAMED 1897-10-17 12:00:00 TS 19.7000 -82.0000 50 hurdat_atl main 207 201 O____________O hurdat_atl AL051897 19.7000 -82.0000 TS 50 0 19.7000 -82.0000 TS 45 4 52
1897283N12298 1897 38 NA CS NOT_NAMED 1897-10-17 15:00:00 TS 19.8075 -81.8149 main 206 203 P____________P AL051897 19.8075 -81.8149 TS 52 0 19.8075 -81.8149 TS 45 4 62
1897283N12298 1897 38 NA CS NOT_NAMED 1897-10-17 18:00:00 TS 19.9000 -81.6000 55 hurdat_atl main 209 206 O____________O hurdat_atl AL051897 19.9000 -81.6000 TS 55 0 19.9000 -81.6000 TS 45 5 67
1897283N12298 1897 38 NA CS NOT_NAMED 1897-10-17 21:00:00 TS 20.0000 -81.3425 main 218 212 P____________P AL051897 20.0000 -81.3425 TS 57 0 20.0000 -81.3425 TS 45 5 67
1897283N12298 1897 38 NA CS NOT_NAMED 1897-10-18 00:00:00 TS 20.1000 -81.1000 60 hurdat_atl main 212 197 O____________O hurdat_atl AL051897 20.1000 -81.1000 TS 60 0 20.1000 -81.1000 TS 45 4 63
1897283N12298 1897 38 NA CS NOT_NAMED 1897-10-18 03:00:00 TS 20.1924 -80.9499 main 192 177 P____________P AL051897 20.1924 -80.9499 TS 62 0 20.1924 -80.9499 TS 45 3 55
1897283N12298 1897 38 NA CS NOT_NAMED 1897-10-18 06:00:00 TS 20.3000 -80.8000 65 hurdat_atl main 177 158 O____________O hurdat_atl AL051897 20.3000 -80.8000 HU 65 1 20.3000 -80.8000 TS 45 4 57
1897283N12298 1897 38 NA CS NOT_NAMED 1897-10-18 09:00:00 TS 20.4199 -80.5798 main 158 126 P____________P AL051897 20.4199 -80.5798 HU 67 1 20.4199 -80.5798 TS 45 6 57
1897283N12298 1897 38 NA CS NOT_NAMED 1897-10-18 12:00:00 TS 20.6000 -80.3000 70 hurdat_atl main 126 89 O____________O hurdat_atl AL051897 20.6000 -80.3000 HU 70 1 20.6000 -80.3000 TS 45 7 52
1897283N12298 1897 38 NA CS NOT_NAMED 1897-10-18 15:00:00 TS 20.8775 -79.9651 main 89 45 P____________P AL051897 20.8775 -79.9651 HU 70 1 20.8775 -79.9651 TS 45 9 47
1897283N12298 1897 38 NA CS NOT_NAMED 1897-10-18 18:00:00 TS 21.2000 -79.6000 70 hurdat_atl main 45 10 O____________O hurdat_atl AL051897 21.2000 -79.6000 HU 70 1 21.2000 -79.6000 TS 45 9 47
1897283N12298 1897 38 NA CS NOT_NAMED 1897-10-18 21:00:00 TS 21.4924 -79.2498 main 0 0 P____________P AL051897 21.4924 -79.2498 HU 70 1 21.4924 -79.2498 TS 42 9 47
1897283N12298 1897 38 NA NA NOT_NAMED 1897-10-19 00:00:00 TS 21.8000 -78.9000 70 hurdat_atl main 0 0 O____________O hurdat_atl AL051897 21.8000 -78.9000 HU 70 1 21.8000 -78.9000 TS 40 9 46
1897283N12298 1897 38 NA NA NOT_NAMED 1897-10-19 03:00:00 TS 22.1350 -78.5350 main 0 0 P____________P AL051897 22.1350 -78.5350 HU 65 1 22.1350 -78.5350 TS 37 10 43
1897283N12298 1897 38 NA NA NOT_NAMED 1897-10-19 06:00:00 TS 22.5000 -78.2000 60 hurdat_atl main 30 30 O____________O hurdat_atl AL051897 22.5000 -78.2000 TS 60 0 22.5000 -78.2000 TS 35 9 40
1897283N12298 1897 38 NA NA NOT_NAMED 1897-10-19 09:00:00 TS 22.8024 -77.9343 main 75 75 P____________P AL051897 22.8024 -77.9343 TS 57 0 22.8024 -77.9343 TS 32 9 30
1897283N12298 1897 38 NA NA NOT_NAMED 1897-10-19 12:00:00 TS 23.3000 -77.7000 55 hurdat_atl main 105 46 O____________O hurdat_atl AL051897 23.3000 -77.7000 TS 55 0 23.3000 -77.7000 TD 30 15 18
1897283N12298 1897 38 NA NA NOT_NAMED 1897-10-19 15:00:00 TS 24.1951 -77.4500 main 45 30 P____________P AL051897 24.1951 -77.4500 TS 55 0 24.1951 -77.4500 TD 30 21 13
1897283N12298 1897 38 NA NA NOT_NAMED 1897-10-19 18:00:00 TS 25.3000 -77.2000 55 hurdat_atl main 83 83 O____________O hurdat_atl AL051897 25.3000 -77.2000 TS 55 0 25.3000 -77.2000 TD 30 22 12
1897283N12298 1897 38 NA NA NOT_NAMED 1897-10-19 21:00:00 TS 26.3776 -76.9278 main 182 182 P____________P AL051897 26.3776 -76.9278 TS 55 0 26.3776 -76.9278 TD 32 23 12
1897283N12298 1897 38 NA NA NOT_NAMED 1897-10-20 00:00:00 TS 27.5000 -76.7000 55 hurdat_atl main 297 297 O____________O hurdat_atl AL051897 27.5000 -76.7000 TS 55 0 27.5000 -76.7000 TS 35 23 8
1897283N12298 1897 38 NA NA NOT_NAMED 1897-10-20 03:00:00 TS 28.6349 -76.5766 main 380 380 P____________P AL051897 28.6349 -76.5766 TS 55 0 28.6349 -76.5766 TS 37 23 4
1897283N12298 1897 38 NA NA NOT_NAMED 1897-10-20 06:00:00 TS 29.8000 -76.5000 55 hurdat_atl main 414 366 O____________O hurdat_atl AL051897 29.8000 -76.5000 TS 55 0 29.8000 -76.5000 TS 40 24 3
1897283N12298 1897 38 NA NA NOT_NAMED 1897-10-20 09:00:00 TS 30.9924 -76.4214 main 356 255 P____________P AL051897 30.9924 -76.4214 TS 55 0 30.9924 -76.4214 TS 42 24 4
1897283N12298 1897 38 NA NA NOT_NAMED 1897-10-20 12:00:00 TS 32.2000 -76.3000 55 hurdat_atl main 246 149 O____________O hurdat_atl AL051897 32.2000 -76.3000 TS 55 0 32.2000 -76.3000 TS 45 25 6
1897283N12298 1897 38 NA NA NOT_NAMED 1897-10-20 15:00:00 TS 33.4412 -76.1228 main 149 63 P____________P AL051897 33.4696 -76.1157 TS 55 0 33.3844 -76.1369 TS 45 24 10
1897283N12298 1897 38 NA NA NOT_NAMED 1897-10-20 18:00:00 TS 34.6000 -75.8000 55 hurdat_atl main 56 38 O____________O hurdat_atl AL051897 34.6000 -75.8000 TS 55 0 34.6000 -75.8000 TS 45 23 16
1897283N12298 1897 38 NA NA NOT_NAMED 1897-10-20 20:00:00 TS 35.3014 -75.4882 55 hurdat_atl main 38 21 O____________P hurdat_atl AL051897 35.2000 -75.5000 L TS 55 0 35.5042 -75.4644 TS 45 25 20
1897283N12298 1897 38 NA NA NOT_NAMED 1897-10-20 21:00:00 TS 35.7492 -75.2775 main 21 21 P____________P AL051897 35.6444 -75.2912 TS 53 0 35.9586 -75.2501 TS 45 31 25
1897283N12298 1897 38 NA NA NOT_NAMED 1897-10-21 00:00:00 TS 37.2000 -74.4000 50 hurdat_atl main 117 117 O____________O hurdat_atl AL051897 37.2000 -74.4000 TS 50 0 37.2000 -74.4000 TS 45 29 34
1897283N12298 1897 38 NA NA NOT_NAMED 1897-10-21 03:00:00 TS 38.1603 -73.2564 main 157 157 P____________P AL051897 38.1768 -73.2536 TS 47 0 38.1272 -73.2620 TS 45 25 51
1897283N12298 1897 38 NA NA NOT_NAMED 1897-10-21 06:00:00 TS 38.8000 -71.9000 45 hurdat_atl main 220 219 O____________O hurdat_atl AL051897 38.8000 -71.9000 TS 45 0 38.8000 -71.9000 TS 45 25 62
1897283N12298 1897 38 NA NA NOT_NAMED 1897-10-21 09:00:00 TS 39.3397 -70.4634 main 244 228 P____________P AL051897 39.3397 -70.4634 TS 42 0 39.3397 -70.4634 TS 45 24 68
1897283N12298 1897 38 NA NA NOT_NAMED 1897-10-21 12:00:00 ET 39.7000 -69.0000 40 hurdat_atl main 237 234 O____________O hurdat_atl AL051897 39.7000 -69.0000 EX 40 -4 39.7000 -69.0000 EX 45 23 74
1897283N12298 1897 38 NA NA NOT_NAMED 1897-10-21 15:00:00 ET 39.9813 -67.6045 main 276 276 P____________P AL051897 39.9813 -67.6045 EX 40 -4 39.9813 -67.6045 EX 45 21 79
1897283N12298 1897 38 NA NA NOT_NAMED 1897-10-21 18:00:00 ET 40.1000 -66.3000 40 hurdat_atl main 357 357 O____________O hurdat_atl AL051897 40.1000 -66.3000 EX 40 -4 40.1000 -66.3000 EX 45 19 88
1897283N12298 1897 38 NA NA NOT_NAMED 1897-10-21 21:00:00 ET 40.0358 -65.1026 main 389 389 P____________P AL051897 40.0358 -65.1026 EX 40 -4 40.0358 -65.1026 EX 45 18 96
1897283N12298 1897 38 NA NA NOT_NAMED 1897-10-22 00:00:00 ET 39.9000 -64.0000 40 hurdat_atl main 414 414 O____________O hurdat_atl AL051897 39.9000 -64.0000 EX 40 -4 39.9000 -64.0000 EX 45 17 98
1897283N12298 1897 38 NA NA NOT_NAMED 1897-10-22 03:00:00 ET 39.8180 -62.9570 main 453 453 P____________P AL051897 39.8180 -62.9570 EX 40 -4 39.8180 -62.9570 EX 45 16 94
1897283N12298 1897 38 NA NA NOT_NAMED 1897-10-22 06:00:00 ET 39.8000 -61.9000 40 hurdat_atl main 498 498 O____________O hurdat_atl AL051897 39.8000 -61.9000 EX 40 -4 39.8000 -61.9000 EX 45 17 88
1897283N12298 1897 38 NA NA NOT_NAMED 1897-10-22 09:00:00 ET 39.8851 -60.7013 main 550 550 P____________P AL051897 39.8851 -60.7013 EX 40 -4 39.8851 -60.7013 EX 45 18 84
1897283N12298 1897 38 NA NA NOT_NAMED 1897-10-22 12:00:00 ET 40.0000 -59.5000 40 hurdat_atl main 587 587 O____________O hurdat_atl AL051897 40.0000 -59.5000 EX 40 -4 40.0000 -59.5000 EX 45 18 84
1897283N12298 1897 38 NA NA NOT_NAMED 1897-10-22 15:00:00 ET 40.0684 -58.4118 main 608 608 P____________P AL051897 40.0684 -58.4118 EX 40 -4 40.0684 -58.4118 EX 45 16 86
1897283N12298 1897 38 NA NA NOT_NAMED 1897-10-22 18:00:00 ET 40.1000 -57.4000 40 hurdat_atl main 642 O____________O hurdat_atl AL051897 40.1000 -57.4000 EX 40 -4 40.1000 -57.4000 EX 45 15 88

IBTrACS Databaseについて

本データベースは、米国NOAAが公開する1842年以降の世界の熱帯低気圧のベストトラックデータアーカイブInternational Best Track Archive for Climate Stewardship (IBTrACS)を、ウェブで閲覧しやすい形式に変換したものです。

最終更新日:2021-11-26